sensor_id;sensor_type;location;lat;lon;timestamp;temperature;humidity
16929;DHT22;8581;47.334;11.190;2022-10-16T00:02:05;8.10;99.90
16929;DHT22;8581;47.334;11.190;2022-10-16T00:04:37;8.20;99.90
16929;DHT22;8581;47.334;11.190;2022-10-16T00:07:09;8.30;99.90
16929;DHT22;8581;47.334;11.190;2022-10-16T00:09:40;8.30;99.90
16929;DHT22;8581;47.334;11.190;2022-10-16T00:12:12;8.20;99.90
16929;DHT22;8581;47.334;11.190;2022-10-16T00:14:43;8.20;99.90
16929;DHT22;8581;47.334;11.190;2022-10-16T00:17:15;8.20;99.90
16929;DHT22;8581;47.334;11.190;2022-10-16T00:19:47;8.20;99.90
16929;DHT22;8581;47.334;11.190;2022-10-16T00:22:18;8.30;99.90
16929;DHT22;8581;47.334;11.190;2022-10-16T00:24:50;8.30;99.90
16929;DHT22;8581;47.334;11.190;2022-10-16T00:27:22;8.40;99.90
16929;DHT22;8581;47.334;11.190;2022-10-16T00:29:53;8.50;99.90
16929;DHT22;8581;47.334;11.190;2022-10-16T00:32:25;8.60;99.90
16929;DHT22;8581;47.334;11.190;2022-10-16T00:34:56;8.50;99.90
16929;DHT22;8581;47.334;11.190;2022-10-16T00:37:28;8.50;99.90
16929;DHT22;8581;47.334;11.190;2022-10-16T00:39:59;8.40;99.90
16929;DHT22;8581;47.334;11.190;2022-10-16T00:42:31;8.60;99.90
16929;DHT22;8581;47.334;11.190;2022-10-16T00:45:03;8.60;99.90
16929;DHT22;8581;47.334;11.190;2022-10-16T00:47:36;8.60;99.90
16929;DHT22;8581;47.334;11.190;2022-10-16T00:50:10;8.50;99.90
16929;DHT22;8581;47.334;11.190;2022-10-16T00:52:41;8.40;99.90
16929;DHT22;8581;47.334;11.190;2022-10-16T00:55:12;8.40;99.90
16929;DHT22;8581;47.334;11.190;2022-10-16T00:57:44;8.60;99.90
16929;DHT22;8581;47.334;11.190;2022-10-16T01:00:17;8.50;99.90
16929;DHT22;8581;47.334;11.190;2022-10-16T01:02:54;8.50;99.90
16929;DHT22;8581;47.334;11.190;2022-10-16T01:05:30;8.50;99.90
16929;DHT22;8581;47.334;11.190;2022-10-16T01:08:19;8.40;99.90
16929;DHT22;8581;47.334;11.190;2022-10-16T01:10:55;8.30;99.90
16929;DHT22;8581;47.334;11.190;2022-10-16T01:13:26;8.30;99.90
16929;DHT22;8581;47.334;11.190;2022-10-16T01:16:00;8.30;99.90
16929;DHT22;8581;47.334;11.190;2022-10-16T01:18:46;8.40;99.90
16929;DHT22;8581;47.334;11.190;2022-10-16T01:21:22;8.40;99.90
16929;DHT22;8581;47.334;11.190;2022-10-16T01:24:03;8.40;99.90
16929;DHT22;8581;47.334;11.190;2022-10-16T01:26:47;8.40;99.90
16929;DHT22;8581;47.334;11.190;2022-10-16T01:29:18;8.50;99.90
16929;DHT22;8581;47.334;11.190;2022-10-16T01:31:50;8.40;99.90
16929;DHT22;8581;47.334;11.190;2022-10-16T01:34:22;8.50;99.90
16929;DHT22;8581;47.334;11.190;2022-10-16T01:36:55;8.50;99.90
16929;DHT22;8581;47.334;11.190;2022-10-16T01:39:26;8.50;99.90
16929;DHT22;8581;47.334;11.190;2022-10-16T01:42:02;8.70;99.90
16929;DHT22;8581;47.334;11.190;2022-10-16T01:44:32;8.70;99.90
16929;DHT22;8581;47.334;11.190;2022-10-16T01:47:03;8.70;99.90
16929;DHT22;8581;47.334;11.190;2022-10-16T01:49:35;8.70;99.90
16929;DHT22;8581;47.334;11.190;2022-10-16T01:52:08;8.90;99.90
16929;DHT22;8581;47.334;11.190;2022-10-16T01:54:39;9.00;99.90
16929;DHT22;8581;47.334;11.190;2022-10-16T01:57:09;9.00;99.90
16929;DHT22;8581;47.334;11.190;2022-10-16T01:59:43;8.90;99.90
16929;DHT22;8581;47.334;11.190;2022-10-16T02:02:13;9.00;99.90
16929;DHT22;8581;47.334;11.190;2022-10-16T02:04:46;9.00;99.90
16929;DHT22;8581;47.334;11.190;2022-10-16T02:07:17;9.10;99.90
16929;DHT22;8581;47.334;11.190;2022-10-16T02:09:48;9.20;99.90
16929;DHT22;8581;47.334;11.190;2022-10-16T02:12:26;9.20;99.90
16929;DHT22;8581;47.334;11.190;2022-10-16T02:14:55;9.30;99.90
16929;DHT22;8581;47.334;11.190;2022-10-16T02:17:27;9.30;99.90
16929;DHT22;8581;47.334;11.190;2022-10-16T02:19:58;9.30;99.90
16929;DHT22;8581;47.334;11.190;2022-10-16T02:22:34;9.30;99.90
16929;DHT22;8581;47.334;11.190;2022-10-16T02:25:10;9.40;99.90
16929;DHT22;8581;47.334;11.190;2022-10-16T02:27:45;9.40;99.90
16929;DHT22;8581;47.334;11.190;2022-10-16T02:30:36;9.50;99.90
16929;DHT22;8581;47.334;11.190;2022-10-16T02:33:08;9.40;99.90
16929;DHT22;8581;47.334;11.190;2022-10-16T02:35:39;9.50;99.90
16929;DHT22;8581;47.334;11.190;2022-10-16T02:38:10;9.50;99.90
16929;DHT22;8581;47.334;11.190;2022-10-16T02:40:42;9.50;99.90
16929;DHT22;8581;47.334;11.190;2022-10-16T02:43:14;9.60;99.90
16929;DHT22;8581;47.334;11.190;2022-10-16T02:45:45;9.70;99.90
16929;DHT22;8581;47.334;11.190;2022-10-16T02:48:17;9.70;99.90
16929;DHT22;8581;47.334;11.190;2022-10-16T02:50:48;9.60;99.90
16929;DHT22;8581;47.334;11.190;2022-10-16T02:53:20;9.50;99.90
16929;DHT22;8581;47.334;11.190;2022-10-16T02:55:51;9.60;99.90
16929;DHT22;8581;47.334;11.190;2022-10-16T02:58:23;9.70;99.90
16929;DHT22;8581;47.334;11.190;2022-10-16T03:00:55;9.70;99.90
16929;DHT22;8581;47.334;11.190;2022-10-16T03:03:26;9.70;99.90
16929;DHT22;8581;47.334;11.190;2022-10-16T03:05:58;9.70;99.90
16929;DHT22;8581;47.334;11.190;2022-10-16T03:08:29;9.80;99.90
16929;DHT22;8581;47.334;11.190;2022-10-16T03:11:01;9.80;99.90
16929;DHT22;8581;47.334;11.190;2022-10-16T03:13:33;9.70;99.90
16929;DHT22;8581;47.334;11.190;2022-10-16T03:16:04;9.70;99.90
16929;DHT22;8581;47.334;11.190;2022-10-16T03:18:36;9.80;99.90
16929;DHT22;8581;47.334;11.190;2022-10-16T03:21:07;9.80;99.90
16929;DHT22;8581;47.334;11.190;2022-10-16T03:23:39;9.90;99.90
16929;DHT22;8581;47.334;11.190;2022-10-16T03:26:11;9.90;99.90
16929;DHT22;8581;47.334;11.190;2022-10-16T03:28:42;9.90;99.90
16929;DHT22;8581;47.334;11.190;2022-10-16T03:31:14;9.90;99.90
16929;DHT22;8581;47.334;11.190;2022-10-16T03:33:45;10.00;99.90
16929;DHT22;8581;47.334;11.190;2022-10-16T03:36:17;10.10;99.90
16929;DHT22;8581;47.334;11.190;2022-10-16T03:38:48;10.10;99.90
16929;DHT22;8581;47.334;11.190;2022-10-16T03:41:20;10.10;99.90
16929;DHT22;8581;47.334;11.190;2022-10-16T03:43:52;10.10;99.90
16929;DHT22;8581;47.334;11.190;2022-10-16T03:46:23;9.80;99.90
16929;DHT22;8581;47.334;11.190;2022-10-16T03:48:55;9.60;99.90
16929;DHT22;8581;47.334;11.190;2022-10-16T03:51:26;9.60;99.90
16929;DHT22;8581;47.334;11.190;2022-10-16T03:53:58;9.70;99.90
16929;DHT22;8581;47.334;11.190;2022-10-16T03:56:30;9.80;99.90
16929;DHT22;8581;47.334;11.190;2022-10-16T03:59:01;9.80;99.90
16929;DHT22;8581;47.334;11.190;2022-10-16T04:01:33;9.90;99.90
16929;DHT22;8581;47.334;11.190;2022-10-16T04:04:04;9.90;99.90
16929;DHT22;8581;47.334;11.190;2022-10-16T04:06:36;10.00;99.90
16929;DHT22;8581;47.334;11.190;2022-10-16T04:09:07;10.00;99.90
16929;DHT22;8581;47.334;11.190;2022-10-16T04:11:39;9.90;99.90
16929;DHT22;8581;47.334;11.190;2022-10-16T04:14:11;9.80;99.90
16929;DHT22;8581;47.334;11.190;2022-10-16T04:16:42;9.70;99.90
16929;DHT22;8581;47.334;11.190;2022-10-16T04:19:14;9.90;99.90
16929;DHT22;8581;47.334;11.190;2022-10-16T04:21:45;9.90;99.90
16929;DHT22;8581;47.334;11.190;2022-10-16T04:24:17;9.90;99.90
16929;DHT22;8581;47.334;11.190;2022-10-16T04:26:49;9.90;99.90
16929;DHT22;8581;47.334;11.190;2022-10-16T04:29:20;9.90;99.90
16929;DHT22;8581;47.334;11.190;2022-10-16T04:31:52;9.80;99.90
16929;DHT22;8581;47.334;11.190;2022-10-16T04:34:23;9.80;99.90
16929;DHT22;8581;47.334;11.190;2022-10-16T04:36:55;9.80;99.90
16929;DHT22;8581;47.334;11.190;2022-10-16T04:39:27;9.90;99.90
16929;DHT22;8581;47.334;11.190;2022-10-16T04:41:58;9.90;99.90
16929;DHT22;8581;47.334;11.190;2022-10-16T04:44:30;9.80;99.90
16929;DHT22;8581;47.334;11.190;2022-10-16T04:47:01;9.90;99.90
16929;DHT22;8581;47.334;11.190;2022-10-16T04:49:33;10.00;99.90
16929;DHT22;8581;47.334;11.190;2022-10-16T04:52:04;10.00;99.90
16929;DHT22;8581;47.334;11.190;2022-10-16T04:54:36;10.10;99.90
16929;DHT22;8581;47.334;11.190;2022-10-16T04:57:08;10.00;99.90
16929;DHT22;8581;47.334;11.190;2022-10-16T04:59:39;9.90;99.90
16929;DHT22;8581;47.334;11.190;2022-10-16T05:02:11;9.80;99.90
16929;DHT22;8581;47.334;11.190;2022-10-16T05:04:42;9.70;99.90
16929;DHT22;8581;47.334;11.190;2022-10-16T05:07:14;9.50;99.90
16929;DHT22;8581;47.334;11.190;2022-10-16T05:09:46;9.50;99.90
16929;DHT22;8581;47.334;11.190;2022-10-16T05:12:17;9.50;99.90
16929;DHT22;8581;47.334;11.190;2022-10-16T05:14:49;9.50;99.90
16929;DHT22;8581;47.334;11.190;2022-10-16T05:17:20;9.40;99.90
16929;DHT22;8581;47.334;11.190;2022-10-16T05:19:52;9.20;99.90
16929;DHT22;8581;47.334;11.190;2022-10-16T05:22:24;9.20;99.90
16929;DHT22;8581;47.334;11.190;2022-10-16T05:24:55;9.20;99.90
16929;DHT22;8581;47.334;11.190;2022-10-16T05:27:27;9.10;99.90
16929;DHT22;8581;47.334;11.190;2022-10-16T05:29:58;9.00;99.90
16929;DHT22;8581;47.334;11.190;2022-10-16T05:32:30;9.20;99.90
16929;DHT22;8581;47.334;11.190;2022-10-16T05:35:02;9.20;99.90
16929;DHT22;8581;47.334;11.190;2022-10-16T05:37:33;9.00;99.90
16929;DHT22;8581;47.334;11.190;2022-10-16T05:40:06;9.00;99.90
16929;DHT22;8581;47.334;11.190;2022-10-16T05:42:38;9.10;99.90
16929;DHT22;8581;47.334;11.190;2022-10-16T05:45:10;9.20;99.90
16929;DHT22;8581;47.334;11.190;2022-10-16T05:47:41;9.30;99.90
16929;DHT22;8581;47.334;11.190;2022-10-16T05:50:13;9.50;99.90
16929;DHT22;8581;47.334;11.190;2022-10-16T05:52:44;9.60;99.90
16929;DHT22;8581;47.334;11.190;2022-10-16T05:55:16;9.40;99.90
16929;DHT22;8581;47.334;11.190;2022-10-16T05:57:47;9.50;99.90
16929;DHT22;8581;47.334;11.190;2022-10-16T06:00:19;9.40;99.90
16929;DHT22;8581;47.334;11.190;2022-10-16T06:02:51;9.40;99.90
16929;DHT22;8581;47.334;11.190;2022-10-16T06:05:22;9.50;99.90
16929;DHT22;8581;47.334;11.190;2022-10-16T06:07:54;9.50;99.90
16929;DHT22;8581;47.334;11.190;2022-10-16T06:10:25;9.60;99.90
16929;DHT22;8581;47.334;11.190;2022-10-16T06:12:57;9.50;99.90
16929;DHT22;8581;47.334;11.190;2022-10-16T06:15:29;9.50;99.90
16929;DHT22;8581;47.334;11.190;2022-10-16T06:18:00;9.50;99.90
16929;DHT22;8581;47.334;11.190;2022-10-16T06:20:32;9.40;99.90
16929;DHT22;8581;47.334;11.190;2022-10-16T06:23:03;9.40;99.90
16929;DHT22;8581;47.334;11.190;2022-10-16T06:25:35;9.50;99.90
16929;DHT22;8581;47.334;11.190;2022-10-16T06:28:06;9.80;99.90
16929;DHT22;8581;47.334;11.190;2022-10-16T06:30:38;9.70;99.90
16929;DHT22;8581;47.334;11.190;2022-10-16T06:33:10;9.80;99.90
16929;DHT22;8581;47.334;11.190;2022-10-16T06:35:41;9.90;99.90
16929;DHT22;8581;47.334;11.190;2022-10-16T06:38:13;9.90;99.90
16929;DHT22;8581;47.334;11.190;2022-10-16T06:40:44;10.00;99.90
16929;DHT22;8581;47.334;11.190;2022-10-16T06:43:16;10.00;99.90
16929;DHT22;8581;47.334;11.190;2022-10-16T06:45:54;9.90;99.90
16929;DHT22;8581;47.334;11.190;2022-10-16T06:48:26;9.90;99.90
16929;DHT22;8581;47.334;11.190;2022-10-16T06:50:59;9.90;99.90
16929;DHT22;8581;47.334;11.190;2022-10-16T06:53:31;9.90;99.90
16929;DHT22;8581;47.334;11.190;2022-10-16T06:56:13;10.00;99.90
16929;DHT22;8581;47.334;11.190;2022-10-16T06:58:43;10.00;99.90
16929;DHT22;8581;47.334;11.190;2022-10-16T07:01:15;10.00;99.90
16929;DHT22;8581;47.334;11.190;2022-10-16T07:03:47;10.00;99.90
16929;DHT22;8581;47.334;11.190;2022-10-16T07:06:19;10.00;99.90
16929;DHT22;8581;47.334;11.190;2022-10-16T07:08:50;10.00;99.90
16929;DHT22;8581;47.334;11.190;2022-10-16T07:11:22;10.10;99.90
16929;DHT22;8581;47.334;11.190;2022-10-16T07:13:53;10.20;99.90
16929;DHT22;8581;47.334;11.190;2022-10-16T07:16:26;10.40;99.90
16929;DHT22;8581;47.334;11.190;2022-10-16T07:18:57;10.50;99.90
16929;DHT22;8581;47.334;11.190;2022-10-16T07:21:30;10.60;99.90
16929;DHT22;8581;47.334;11.190;2022-10-16T07:24:01;10.90;99.90
16929;DHT22;8581;47.334;11.190;2022-10-16T07:26:33;11.10;99.90
16929;DHT22;8581;47.334;11.190;2022-10-16T07:29:04;11.30;99.90
16929;DHT22;8581;47.334;11.190;2022-10-16T07:31:35;11.50;99.90
16929;DHT22;8581;47.334;11.190;2022-10-16T07:34:07;11.70;99.90
16929;DHT22;8581;47.334;11.190;2022-10-16T07:36:38;11.90;99.90
16929;DHT22;8581;47.334;11.190;2022-10-16T07:39:10;12.10;99.90
16929;DHT22;8581;47.334;11.190;2022-10-16T07:41:42;12.40;99.90
16929;DHT22;8581;47.334;11.190;2022-10-16T07:44:13;12.90;99.90
16929;DHT22;8581;47.334;11.190;2022-10-16T07:46:52;13.30;99.90
16929;DHT22;8581;47.334;11.190;2022-10-16T07:49:23;13.60;99.90
16929;DHT22;8581;47.334;11.190;2022-10-16T07:51:55;13.80;99.90
16929;DHT22;8581;47.334;11.190;2022-10-16T07:54:27;14.20;99.90
16929;DHT22;8581;47.334;11.190;2022-10-16T07:56:58;14.40;99.90
16929;DHT22;8581;47.334;11.190;2022-10-16T07:59:30;14.60;99.90
16929;DHT22;8581;47.334;11.190;2022-10-16T08:02:01;14.90;99.90
16929;DHT22;8581;47.334;11.190;2022-10-16T08:04:33;15.00;99.90
16929;DHT22;8581;47.334;11.190;2022-10-16T08:07:06;15.00;99.90
16929;DHT22;8581;47.334;11.190;2022-10-16T08:09:36;15.10;99.90
16929;DHT22;8581;47.334;11.190;2022-10-16T08:12:08;15.00;99.90
16929;DHT22;8581;47.334;11.190;2022-10-16T08:14:39;14.90;99.90
16929;DHT22;8581;47.334;11.190;2022-10-16T08:17:13;14.70;99.90
16929;DHT22;8581;47.334;11.190;2022-10-16T08:19:46;14.50;99.90
16929;DHT22;8581;47.334;11.190;2022-10-16T08:22:17;14.40;99.90
16929;DHT22;8581;47.334;11.190;2022-10-16T08:24:49;14.30;99.90
16929;DHT22;8581;47.334;11.190;2022-10-16T08:27:20;14.10;99.90
16929;DHT22;8581;47.334;11.190;2022-10-16T08:29:54;14.20;99.90
16929;DHT22;8581;47.334;11.190;2022-10-16T08:32:27;14.10;99.90
16929;DHT22;8581;47.334;11.190;2022-10-16T08:34:58;14.60;99.90
16929;DHT22;8581;47.334;11.190;2022-10-16T08:37:30;14.90;99.90
16929;DHT22;8581;47.334;11.190;2022-10-16T08:43:15;15.50;99.90
16929;DHT22;8581;47.334;11.190;2022-10-16T08:45:48;16.00;99.90
16929;DHT22;8581;47.334;11.190;2022-10-16T08:48:24;16.20;99.90
16929;DHT22;8581;47.334;11.190;2022-10-16T08:50:56;16.50;99.90
16929;DHT22;8581;47.334;11.190;2022-10-16T08:53:31;16.60;99.90
16929;DHT22;8581;47.334;11.190;2022-10-16T08:56:02;16.60;99.90
16929;DHT22;8581;47.334;11.190;2022-10-16T08:58:33;16.90;99.90
16929;DHT22;8581;47.334;11.190;2022-10-16T09:01:10;17.00;99.90
16929;DHT22;8581;47.334;11.190;2022-10-16T09:04:00;17.10;99.90
16929;DHT22;8581;47.334;11.190;2022-10-16T09:06:30;17.10;99.90
16929;DHT22;8581;47.334;11.190;2022-10-16T09:09:17;17.20;99.90
16929;DHT22;8581;47.334;11.190;2022-10-16T09:18:10;17.70;99.90
16929;DHT22;8581;47.334;11.190;2022-10-16T09:20:47;17.80;99.90
16929;DHT22;8581;47.334;11.190;2022-10-16T09:23:21;17.80;99.90
16929;DHT22;8581;47.334;11.190;2022-10-16T09:25:50;17.80;99.90
16929;DHT22;8581;47.334;11.190;2022-10-16T09:28:21;18.00;99.90
16929;DHT22;8581;47.334;11.190;2022-10-16T09:30:53;18.00;99.90
16929;DHT22;8581;47.334;11.190;2022-10-16T09:33:28;18.20;99.90
16929;DHT22;8581;47.334;11.190;2022-10-16T09:35:57;18.50;99.90
16929;DHT22;8581;47.334;11.190;2022-10-16T09:38:31;18.70;99.90
16929;DHT22;8581;47.334;11.190;2022-10-16T09:41:12;18.70;99.90
16929;DHT22;8581;47.334;11.190;2022-10-16T09:43:39;18.90;99.90
16929;DHT22;8581;47.334;11.190;2022-10-16T09:46:28;19.00;99.90
16929;DHT22;8581;47.334;11.190;2022-10-16T09:49:02;19.00;99.90
16929;DHT22;8581;47.334;11.190;2022-10-16T09:51:34;19.00;99.90
16929;DHT22;8581;47.334;11.190;2022-10-16T09:54:23;19.00;99.90
16929;DHT22;8581;47.334;11.190;2022-10-16T09:57:04;19.30;99.90
16929;DHT22;8581;47.334;11.190;2022-10-16T09:59:26;19.60;99.90
16929;DHT22;8581;47.334;11.190;2022-10-16T10:02:01;19.90;99.90
16929;DHT22;8581;47.334;11.190;2022-10-16T10:04:37;20.40;99.90
16929;DHT22;8581;47.334;11.190;2022-10-16T10:07:01;20.40;99.90
16929;DHT22;8581;47.334;11.190;2022-10-16T10:09:38;20.80;99.90
16929;DHT22;8581;47.334;11.190;2022-10-16T10:12:19;21.50;99.90
16929;DHT22;8581;47.334;11.190;2022-10-16T10:14:51;21.80;99.90
16929;DHT22;8581;47.334;11.190;2022-10-16T10:17:24;21.70;99.90
16929;DHT22;8581;47.334;11.190;2022-10-16T10:19:58;21.80;99.90
16929;DHT22;8581;47.334;11.190;2022-10-16T10:22:39;21.90;99.90
16929;DHT22;8581;47.334;11.190;2022-10-16T10:28:18;23.00;99.90
16929;DHT22;8581;47.334;11.190;2022-10-16T10:30:54;23.30;99.90
16929;DHT22;8581;47.334;11.190;2022-10-16T10:33:28;23.60;99.90
16929;DHT22;8581;47.334;11.190;2022-10-16T10:36:21;24.20;99.90
16929;DHT22;8581;47.334;11.190;2022-10-16T10:41:52;24.90;99.90
16929;DHT22;8581;47.334;11.190;2022-10-16T10:44:33;24.90;99.90
16929;DHT22;8581;47.334;11.190;2022-10-16T10:47:07;24.80;99.90
16929;DHT22;8581;47.334;11.190;2022-10-16T10:49:41;25.00;99.90
16929;DHT22;8581;47.334;11.190;2022-10-16T10:52:29;25.50;99.90
16929;DHT22;8581;47.334;11.190;2022-10-16T10:55:52;25.90;99.90
16929;DHT22;8581;47.334;11.190;2022-10-16T10:58:42;25.80;99.90
16929;DHT22;8581;47.334;11.190;2022-10-16T11:01:14;26.00;99.90
16929;DHT22;8581;47.334;11.190;2022-10-16T11:06:39;27.60;98.00
16929;DHT22;8581;47.334;11.190;2022-10-16T11:09:10;28.30;97.40
16929;DHT22;8581;47.334;11.190;2022-10-16T11:11:43;28.50;95.90
16929;DHT22;8581;47.334;11.190;2022-10-16T11:14:20;29.40;93.90
16929;DHT22;8581;47.334;11.190;2022-10-16T11:16:52;30.10;92.40
16929;DHT22;8581;47.334;11.190;2022-10-16T11:19:31;30.60;92.20
16929;DHT22;8581;47.334;11.190;2022-10-16T11:22:03;30.10;93.60
16929;DHT22;8581;47.334;11.190;2022-10-16T11:24:44;30.40;90.10
16929;DHT22;8581;47.334;11.190;2022-10-16T11:27:16;30.50;90.50
16929;DHT22;8581;47.334;11.190;2022-10-16T11:29:52;31.50;90.90
16929;DHT22;8581;47.334;11.190;2022-10-16T11:32:23;33.00;89.00
16929;DHT22;8581;47.334;11.190;2022-10-16T11:34:57;33.60;87.00
16929;DHT22;8581;47.334;11.190;2022-10-16T11:37:28;35.10;84.70
16929;DHT22;8581;47.334;11.190;2022-10-16T11:39:59;34.80;80.80
16929;DHT22;8581;47.334;11.190;2022-10-16T11:42:33;32.70;82.50
16929;DHT22;8581;47.334;11.190;2022-10-16T11:45:10;33.70;80.80
16929;DHT22;8581;47.334;11.190;2022-10-16T11:47:43;33.60;78.30
16929;DHT22;8581;47.334;11.190;2022-10-16T11:50:20;33.80;77.70
16929;DHT22;8581;47.334;11.190;2022-10-16T11:55:29;33.50;76.70
16929;DHT22;8581;47.334;11.190;2022-10-16T11:58:02;35.30;78.00
16929;DHT22;8581;47.334;11.190;2022-10-16T12:00:39;35.00;78.70
16929;DHT22;8581;47.334;11.190;2022-10-16T12:03:15;35.90;80.00
16929;DHT22;8581;47.334;11.190;2022-10-16T12:08:37;36.50;75.50
16929;DHT22;8581;47.334;11.190;2022-10-16T12:11:20;38.20;73.60
16929;DHT22;8581;47.334;11.190;2022-10-16T12:13:41;38.20;71.10
16929;DHT22;8581;47.334;11.190;2022-10-16T12:16:22;39.80;67.80
16929;DHT22;8581;47.334;11.190;2022-10-16T12:19:10;40.20;64.50
16929;DHT22;8581;47.334;11.190;2022-10-16T12:21:39;39.40;60.80
16929;DHT22;8581;47.334;11.190;2022-10-16T12:24:30;40.00;60.50
16929;DHT22;8581;47.334;11.190;2022-10-16T12:27:02;39.70;63.00
16929;DHT22;8581;47.334;11.190;2022-10-16T12:29:39;38.10;64.30
16929;DHT22;8581;47.334;11.190;2022-10-16T12:32:25;37.90;66.30
16929;DHT22;8581;47.334;11.190;2022-10-16T12:34:53;37.60;67.70
16929;DHT22;8581;47.334;11.190;2022-10-16T12:37:27;34.30;69.30
16929;DHT22;8581;47.334;11.190;2022-10-16T12:39:57;32.30;73.30
16929;DHT22;8581;47.334;11.190;2022-10-16T12:42:33;33.50;71.50
16929;DHT22;8581;47.334;11.190;2022-10-16T12:45:21;34.30;69.30
16929;DHT22;8581;47.334;11.190;2022-10-16T12:47:37;36.30;65.30
16929;DHT22;8581;47.334;11.190;2022-10-16T12:52:51;39.40;65.60
16929;DHT22;8581;47.334;11.190;2022-10-16T12:55:23;38.90;62.00
16929;DHT22;8581;47.334;11.190;2022-10-16T13:00:57;33.70;69.50
16929;DHT22;8581;47.334;11.190;2022-10-16T13:03:35;34.30;69.40
16929;DHT22;8581;47.334;11.190;2022-10-16T13:06:25;32.90;70.20
16929;DHT22;8581;47.334;11.190;2022-10-16T13:11:57;35.00;70.50
16929;DHT22;8581;47.334;11.190;2022-10-16T13:20:12;37.30;67.80
16929;DHT22;8581;47.334;11.190;2022-10-16T13:23:54;36.90;65.60
16929;DHT22;8581;47.334;11.190;2022-10-16T13:25:53;36.90;65.10
16929;DHT22;8581;47.334;11.190;2022-10-16T13:28:21;35.80;64.50
16929;DHT22;8581;47.334;11.190;2022-10-16T13:30:52;36.80;64.90
16929;DHT22;8581;47.334;11.190;2022-10-16T13:33:34;33.60;68.40
16929;DHT22;8581;47.334;11.190;2022-10-16T13:36:05;33.90;69.20
16929;DHT22;8581;47.334;11.190;2022-10-16T13:38:36;34.00;69.70
16929;DHT22;8581;47.334;11.190;2022-10-16T13:41:17;34.30;69.30
16929;DHT22;8581;47.334;11.190;2022-10-16T13:43:49;35.20;69.60
16929;DHT22;8581;47.334;11.190;2022-10-16T13:46:23;35.60;67.10
16929;DHT22;8581;47.334;11.190;2022-10-16T13:48:59;35.60;67.80
16929;DHT22;8581;47.334;11.190;2022-10-16T13:51:30;35.50;67.50
16929;DHT22;8581;47.334;11.190;2022-10-16T13:54:01;33.80;69.60
16929;DHT22;8581;47.334;11.190;2022-10-16T13:56:33;35.30;68.20
16929;DHT22;8581;47.334;11.190;2022-10-16T13:59:06;34.50;65.50
16929;DHT22;8581;47.334;11.190;2022-10-16T14:01:41;33.10;68.20
16929;DHT22;8581;47.334;11.190;2022-10-16T14:04:12;32.70;68.20
16929;DHT22;8581;47.334;11.190;2022-10-16T14:06:44;33.10;66.70
16929;DHT22;8581;47.334;11.190;2022-10-16T14:09:23;33.60;66.30
16929;DHT22;8581;47.334;11.190;2022-10-16T14:11:55;33.60;66.50
16929;DHT22;8581;47.334;11.190;2022-10-16T14:14:27;32.70;67.60
16929;DHT22;8581;47.334;11.190;2022-10-16T14:16:57;33.30;66.00
16929;DHT22;8581;47.334;11.190;2022-10-16T14:19:29;32.90;66.70
16929;DHT22;8581;47.334;11.190;2022-10-16T14:22:00;33.70;67.10
16929;DHT22;8581;47.334;11.190;2022-10-16T14:24:33;34.80;66.10
16929;DHT22;8581;47.334;11.190;2022-10-16T14:27:20;34.10;67.50
16929;DHT22;8581;47.334;11.190;2022-10-16T14:29:36;32.40;67.90
16929;DHT22;8581;47.334;11.190;2022-10-16T14:32:20;34.20;66.80
16929;DHT22;8581;47.334;11.190;2022-10-16T14:34:39;35.60;66.70
16929;DHT22;8581;47.334;11.190;2022-10-16T14:39:53;37.20;63.50
16929;DHT22;8581;47.334;11.190;2022-10-16T14:42:24;35.60;62.80
16929;DHT22;8581;47.334;11.190;2022-10-16T14:44:56;33.60;66.00
16929;DHT22;8581;47.334;11.190;2022-10-16T14:47:27;32.40;68.80
16929;DHT22;8581;47.334;11.190;2022-10-16T14:49:59;31.80;70.10
16929;DHT22;8581;47.334;11.190;2022-10-16T14:52:31;33.10;69.60
16929;DHT22;8581;47.334;11.190;2022-10-16T14:55:02;31.90;70.50
16929;DHT22;8581;47.334;11.190;2022-10-16T14:57:34;33.40;70.00
16929;DHT22;8581;47.334;11.190;2022-10-16T15:00:18;33.80;69.00
16929;DHT22;8581;47.334;11.190;2022-10-16T15:02:50;32.30;71.40
16929;DHT22;8581;47.334;11.190;2022-10-16T15:05:23;32.20;71.10
16929;DHT22;8581;47.334;11.190;2022-10-16T15:07:54;32.10;70.90
16929;DHT22;8581;47.334;11.190;2022-10-16T15:10:26;33.10;70.60
16929;DHT22;8581;47.334;11.190;2022-10-16T15:12:57;32.40;71.00
16929;DHT22;8581;47.334;11.190;2022-10-16T15:15:35;31.80;71.80
16929;DHT22;8581;47.334;11.190;2022-10-16T15:18:06;32.10;71.40
16929;DHT22;8581;47.334;11.190;2022-10-16T15:20:38;30.60;73.30
16929;DHT22;8581;47.334;11.190;2022-10-16T15:23:13;31.20;73.20
16929;DHT22;8581;47.334;11.190;2022-10-16T15:25:45;31.30;73.80
16929;DHT22;8581;47.334;11.190;2022-10-16T15:28:16;31.20;72.10
16929;DHT22;8581;47.334;11.190;2022-10-16T15:30:49;30.80;73.50
16929;DHT22;8581;47.334;11.190;2022-10-16T15:33:20;30.60;74.50
16929;DHT22;8581;47.334;11.190;2022-10-16T15:35:50;29.50;75.00
16929;DHT22;8581;47.334;11.190;2022-10-16T15:38:22;27.40;79.30
16929;DHT22;8581;47.334;11.190;2022-10-16T15:40:53;28.00;78.50
16929;DHT22;8581;47.334;11.190;2022-10-16T15:43:25;28.40;77.80
16929;DHT22;8581;47.334;11.190;2022-10-16T15:46:02;28.50;77.70
16929;DHT22;8581;47.334;11.190;2022-10-16T15:48:33;26.60;81.70
16929;DHT22;8581;47.334;11.190;2022-10-16T15:51:05;25.70;84.10
16929;DHT22;8581;47.334;11.190;2022-10-16T15:53:36;24.70;85.90
16929;DHT22;8581;47.334;11.190;2022-10-16T15:56:08;23.00;89.80
16929;DHT22;8581;47.334;11.190;2022-10-16T15:58:39;22.20;91.50
16929;DHT22;8581;47.334;11.190;2022-10-16T16:01:11;21.80;90.90
16929;DHT22;8581;47.334;11.190;2022-10-16T16:03:43;21.50;93.10
16929;DHT22;8581;47.334;11.190;2022-10-16T16:06:14;21.20;93.40
16929;DHT22;8581;47.334;11.190;2022-10-16T16:08:46;20.40;95.40
16929;DHT22;8581;47.334;11.190;2022-10-16T16:11:18;19.60;96.80
16929;DHT22;8581;47.334;11.190;2022-10-16T16:13:49;19.40;97.60
16929;DHT22;8581;47.334;11.190;2022-10-16T16:16:21;19.20;98.90
16929;DHT22;8581;47.334;11.190;2022-10-16T16:18:52;18.90;99.90
16929;DHT22;8581;47.334;11.190;2022-10-16T16:21:24;18.60;99.90
16929;DHT22;8581;47.334;11.190;2022-10-16T16:23:55;18.30;99.90
16929;DHT22;8581;47.334;11.190;2022-10-16T16:26:28;18.00;99.90
16929;DHT22;8581;47.334;11.190;2022-10-16T16:28:59;17.70;99.90
16929;DHT22;8581;47.334;11.190;2022-10-16T16:31:31;17.30;99.90
16929;DHT22;8581;47.334;11.190;2022-10-16T16:34:02;16.90;99.90
16929;DHT22;8581;47.334;11.190;2022-10-16T16:36:34;16.50;99.90
16929;DHT22;8581;47.334;11.190;2022-10-16T16:39:06;16.40;99.90
16929;DHT22;8581;47.334;11.190;2022-10-16T16:41:37;16.20;99.90
16929;DHT22;8581;47.334;11.190;2022-10-16T16:44:09;15.90;99.90
16929;DHT22;8581;47.334;11.190;2022-10-16T16:46:41;15.50;99.90
16929;DHT22;8581;47.334;11.190;2022-10-16T16:49:12;15.10;99.90
16929;DHT22;8581;47.334;11.190;2022-10-16T16:51:44;15.10;99.90
16929;DHT22;8581;47.334;11.190;2022-10-16T16:54:15;14.90;99.90
16929;DHT22;8581;47.334;11.190;2022-10-16T16:56:47;14.70;99.90